createdAt,value
2018-05-13T00:00:11.159Z,16.00
2018-05-13T00:01:10.873Z,15.90
2018-05-13T00:02:05.502Z,15.90
2018-05-13T00:03:07.644Z,16.00
2018-05-13T00:04:05.439Z,15.90
2018-05-13T00:05:13.850Z,15.90
2018-05-13T00:06:06.584Z,15.90
2018-05-13T00:07:05.276Z,15.90
2018-05-13T00:08:07.956Z,15.90
2018-05-13T00:09:08.758Z,15.80
2018-05-13T00:10:05.521Z,15.80
2018-05-13T00:11:05.526Z,15.80
2018-05-13T00:12:05.735Z,15.80
2018-05-13T00:13:05.459Z,15.80
2018-05-13T00:14:05.288Z,15.80
2018-05-13T00:15:05.441Z,15.70
2018-05-13T00:16:05.384Z,15.70
2018-05-13T00:17:08.159Z,15.60
2018-05-13T00:18:05.632Z,15.60
2018-05-13T00:19:05.582Z,15.60
2018-05-13T00:20:10.685Z,15.50
2018-05-13T00:21:06.561Z,15.60
2018-05-13T00:22:09.085Z,15.50
2018-05-13T00:23:05.905Z,15.50
2018-05-13T00:24:06.141Z,15.50
2018-05-13T00:25:08.619Z,15.40
2018-05-13T00:26:05.221Z,15.40
2018-05-13T00:27:05.878Z,15.40
2018-05-13T00:28:05.282Z,15.40
2018-05-13T00:29:08.164Z,15.30
2018-05-13T00:30:10.714Z,15.20
2018-05-13T00:31:10.255Z,15.30
2018-05-13T00:32:05.487Z,15.20
2018-05-13T00:33:05.939Z,15.20
2018-05-13T00:34:10.913Z,15.20
2018-05-13T00:35:05.549Z,15.20
2018-05-13T00:36:05.140Z,15.20
2018-05-13T00:37:06.312Z,15.20
2018-05-13T00:38:05.152Z,15.20
2018-05-13T00:39:08.182Z,15.10
2018-05-13T00:40:10.864Z,15.10
2018-05-13T00:41:10.524Z,15.10
2018-05-13T00:42:05.961Z,15.10
2018-05-13T00:43:07.983Z,15.10
2018-05-13T00:44:10.694Z,15.10
2018-05-13T00:45:05.419Z,15.10
2018-05-13T00:46:05.538Z,15.10
2018-05-13T00:47:05.634Z,15.10
2018-05-13T00:48:05.857Z,15.10
2018-05-13T00:49:05.923Z,15.00
2018-05-13T00:50:05.923Z,15.00
2018-05-13T00:51:08.104Z,15.00
2018-05-13T00:52:05.886Z,15.00
2018-05-13T00:53:05.745Z,15.00
2018-05-13T00:54:05.368Z,15.00
2018-05-13T00:55:08.388Z,15.00
2018-05-13T00:56:06.388Z,15.00
2018-05-13T00:57:08.544Z,15.00
2018-05-13T00:58:06.100Z,15.00
2018-05-13T00:59:05.846Z,15.00
2018-05-13T01:00:08.030Z,15.00
2018-05-13T01:01:05.780Z,15.00
2018-05-13T01:02:09.506Z,15.00
2018-05-13T01:03:06.133Z,14.90
2018-05-13T01:04:11.119Z,14.90
2018-05-13T01:05:08.039Z,14.90
2018-05-13T01:06:05.728Z,14.90
2018-05-13T01:07:07.974Z,14.90
2018-05-13T01:08:05.586Z,14.90
2018-05-13T01:09:05.864Z,14.90
2018-05-13T01:10:06.075Z,14.90
2018-05-13T01:11:09.285Z,14.80
2018-05-13T01:12:10.974Z,14.90
2018-05-13T01:13:05.547Z,14.80
2018-05-13T01:14:08.540Z,14.80
2018-05-13T01:15:10.414Z,14.80
2018-05-13T01:16:08.391Z,14.80
2018-05-13T01:17:05.993Z,14.80
2018-05-13T01:18:05.099Z,14.80
2018-05-13T01:19:06.111Z,14.80
2018-05-13T01:20:05.174Z,14.70
2018-05-13T01:21:08.403Z,14.70
2018-05-13T01:22:11.028Z,14.60
2018-05-13T01:23:10.608Z,14.60
2018-05-13T01:24:05.909Z,14.60
2018-05-13T01:25:05.481Z,14.60
2018-05-13T01:26:05.831Z,14.60
2018-05-13T01:27:08.756Z,14.60
2018-05-13T01:28:10.555Z,14.60
2018-05-13T01:29:11.129Z,14.50
2018-05-13T01:30:05.338Z,14.60
2018-05-13T01:31:06.099Z,14.50
2018-05-13T01:32:06.222Z,14.50
2018-05-13T01:33:05.352Z,14.50
2018-05-13T01:34:06.191Z,14.50
2018-05-13T01:35:05.913Z,14.50
2018-05-13T01:36:11.470Z,14.50
2018-05-13T01:37:09.371Z,14.50
2018-05-13T01:38:06.101Z,14.40
2018-05-13T01:39:06.201Z,14.50
2018-05-13T01:40:05.236Z,14.50
2018-05-13T01:41:05.476Z,14.50
2018-05-13T01:42:10.408Z,14.40
2018-05-13T01:43:05.941Z,14.40
2018-05-13T01:44:10.409Z,14.50
2018-05-13T01:45:06.023Z,14.50
2018-05-13T01:46:05.777Z,14.50
2018-05-13T01:47:10.778Z,14.50
2018-05-13T01:48:05.957Z,14.40
2018-05-13T01:49:06.085Z,14.40
2018-05-13T01:50:05.484Z,14.40
2018-05-13T01:51:05.482Z,14.40
2018-05-13T01:52:09.940Z,14.40
2018-05-13T01:53:08.473Z,14.40
2018-05-13T01:54:06.069Z,14.40
2018-05-13T01:55:05.692Z,14.40
2018-05-13T01:56:06.149Z,14.40
2018-05-13T01:57:06.028Z,14.40
2018-05-13T01:58:10.500Z,14.40
2018-05-13T01:59:12.565Z,14.40
2018-05-13T02:00:05.645Z,14.40
2018-05-13T02:01:05.623Z,14.40
2018-05-13T02:02:05.867Z,14.40
2018-05-13T02:03:11.088Z,14.30
2018-05-13T02:04:10.570Z,14.30
2018-05-13T02:05:05.610Z,14.30
2018-05-13T02:06:05.230Z,14.30
2018-05-13T02:07:05.953Z,14.30
2018-05-13T02:08:07.890Z,14.30
2018-05-13T02:09:08.687Z,14.30
2018-05-13T02:10:05.470Z,14.30
2018-05-13T02:11:05.328Z,14.30
2018-05-13T02:12:06.689Z,14.20
2018-05-13T02:13:05.794Z,14.30
2018-05-13T02:14:05.157Z,14.20
2018-05-13T02:15:08.206Z,14.30
2018-05-13T02:16:06.037Z,14.20
2018-05-13T02:17:08.402Z,14.30
2018-05-13T02:18:05.908Z,14.30
2018-05-13T02:19:05.550Z,14.30
2018-05-13T02:20:06.549Z,14.30
2018-05-13T02:21:05.232Z,14.30
2018-05-13T02:22:08.671Z,14.20
2018-05-13T02:23:05.211Z,14.30
2018-05-13T02:24:06.047Z,14.30
2018-05-13T02:25:05.120Z,14.30
2018-05-13T02:26:06.034Z,14.20
2018-05-13T02:27:19.658Z,14.30
2018-05-13T02:28:08.380Z,14.30
2018-05-13T02:29:08.964Z,14.20
2018-05-13T02:30:08.075Z,14.20
2018-05-13T02:31:10.534Z,14.20
2018-05-13T02:32:11.091Z,14.20
2018-05-13T02:33:10.503Z,14.20
2018-05-13T02:34:11.229Z,14.20
2018-05-13T02:35:10.361Z,14.20
2018-05-13T02:36:11.074Z,14.20
2018-05-13T02:37:05.658Z,14.20
2018-05-13T02:38:05.836Z,14.20
2018-05-13T02:39:05.369Z,14.20
2018-05-13T02:40:07.712Z,14.20
2018-05-13T02:41:10.428Z,14.20
2018-05-13T02:42:05.411Z,14.20
2018-05-13T02:43:05.209Z,14.20
2018-05-13T02:44:10.382Z,14.20
2018-05-13T02:45:10.868Z,14.20
2018-05-13T02:46:10.572Z,14.20
2018-05-13T02:47:11.128Z,14.20
2018-05-13T02:48:08.249Z,14.20
2018-05-13T02:49:05.792Z,14.20
2018-05-13T02:50:06.045Z,14.20
2018-05-13T02:51:11.089Z,14.20
2018-05-13T02:52:06.165Z,14.20
2018-05-13T02:53:06.302Z,14.20
2018-05-13T02:54:06.535Z,14.20
2018-05-13T02:55:05.980Z,14.20
2018-05-13T02:56:10.334Z,14.20
2018-05-13T02:57:05.585Z,14.20
2018-05-13T02:58:05.599Z,14.20
2018-05-13T02:59:05.873Z,14.20
2018-05-13T03:00:08.540Z,14.20
2018-05-13T03:01:06.330Z,14.20
2018-05-13T03:02:08.508Z,14.20
2018-05-13T03:03:08.647Z,14.20
2018-05-13T03:04:05.187Z,14.10
2018-05-13T03:05:11.271Z,14.20
2018-05-13T03:06:06.418Z,14.20
2018-05-13T03:07:05.872Z,14.20
2018-05-13T03:08:05.764Z,14.20
2018-05-13T03:09:05.990Z,14.20
2018-05-13T03:10:05.745Z,14.20
2018-05-13T03:11:10.440Z,14.20
2018-05-13T03:12:06.013Z,14.20
2018-05-13T03:13:05.499Z,14.20
2018-05-13T03:14:05.796Z,14.30
2018-05-13T03:15:08.524Z,14.20
2018-05-13T03:16:08.703Z,14.20
2018-05-13T03:17:05.487Z,14.30
2018-05-13T03:18:06.217Z,14.20
2018-05-13T03:19:06.129Z,14.20
2018-05-13T03:20:05.369Z,14.30
2018-05-13T03:21:05.402Z,14.30
2018-05-13T03:22:05.432Z,14.20
2018-05-13T03:23:05.805Z,14.20
2018-05-13T03:24:05.874Z,14.20
2018-05-13T03:25:05.838Z,14.20
2018-05-13T03:26:05.758Z,14.20
2018-05-13T03:27:05.923Z,14.20
2018-05-13T03:28:08.822Z,14.20
2018-05-13T03:29:05.338Z,14.20
2018-05-13T03:30:05.209Z,14.20
2018-05-13T03:31:05.976Z,14.20
2018-05-13T03:32:10.677Z,14.20
2018-05-13T03:33:11.113Z,14.20
2018-05-13T03:34:10.629Z,14.20
2018-05-13T03:35:07.984Z,14.20
2018-05-13T03:36:11.523Z,14.20
2018-05-13T03:37:06.210Z,14.20
2018-05-13T03:38:09.191Z,14.20
2018-05-13T03:39:05.912Z,14.20
2018-05-13T03:40:06.443Z,14.20
2018-05-13T03:41:06.164Z,14.10
2018-05-13T03:42:08.671Z,14.10
2018-05-13T03:43:05.543Z,14.10
2018-05-13T03:44:06.554Z,14.10
2018-05-13T03:45:05.660Z,14.10
2018-05-13T03:46:10.902Z,14.10
2018-05-13T03:47:06.207Z,14.10
2018-05-13T03:48:05.522Z,14.10
2018-05-13T03:49:10.488Z,14.10
2018-05-13T03:50:06.234Z,14.10
2018-05-13T03:51:06.220Z,14.10
2018-05-13T03:52:08.513Z,14.00
2018-05-13T03:53:06.485Z,14.00
2018-05-13T03:54:05.761Z,14.00
2018-05-13T03:55:10.557Z,14.00
2018-05-13T03:56:05.820Z,14.00
2018-05-13T03:57:06.169Z,14.00
2018-05-13T03:58:08.307Z,14.00
2018-05-13T03:59:10.879Z,14.00
2018-05-13T04:00:05.862Z,14.00
2018-05-13T04:01:09.154Z,14.00
2018-05-13T04:02:05.885Z,14.00
2018-05-13T04:03:05.599Z,14.00
2018-05-13T04:04:05.688Z,14.00
2018-05-13T04:05:05.921Z,13.90
2018-05-13T04:06:10.826Z,13.90
2018-05-13T04:07:07.991Z,14.00
2018-05-13T04:08:06.176Z,14.00
2018-05-13T04:09:08.469Z,14.00
2018-05-13T04:10:08.749Z,14.00
2018-05-13T04:11:09.388Z,14.10
2018-05-13T04:12:06.130Z,14.10
2018-05-13T04:13:05.727Z,14.10
2018-05-13T04:14:11.125Z,14.20
2018-05-13T04:15:05.658Z,14.20
2018-05-13T04:16:08.275Z,14.30
2018-05-13T04:17:05.864Z,14.30
2018-05-13T04:18:06.336Z,14.30
2018-05-13T04:19:06.045Z,14.50
2018-05-13T04:20:10.468Z,14.60
2018-05-13T04:21:08.721Z,14.70
2018-05-13T04:22:05.795Z,14.70
2018-05-13T04:23:05.556Z,14.80
2018-05-13T04:24:08.124Z,15.00
2018-05-13T04:25:09.632Z,15.10
2018-05-13T04:26:06.079Z,15.10
2018-05-13T04:27:11.106Z,15.20
2018-05-13T04:28:10.416Z,15.40
2018-05-13T04:29:11.132Z,15.50
2018-05-13T04:30:05.675Z,15.50
2018-05-13T04:31:08.209Z,15.70
2018-05-13T04:32:10.731Z,15.70
2018-05-13T04:33:08.163Z,15.90
2018-05-13T04:34:05.918Z,15.90
2018-05-13T04:35:05.586Z,16.00
2018-05-13T04:36:06.276Z,16.10
2018-05-13T04:37:07.966Z,16.30
2018-05-13T04:38:05.631Z,16.30
2018-05-13T04:39:05.604Z,16.40
2018-05-13T04:40:08.225Z,16.60
2018-05-13T04:41:05.981Z,16.70
2018-05-13T04:42:05.745Z,16.70
2018-05-13T04:43:11.238Z,16.90
2018-05-13T04:44:11.011Z,17.10
2018-05-13T04:45:05.663Z,17.10
2018-05-13T04:46:05.384Z,17.10
2018-05-13T04:47:08.092Z,17.40
2018-05-13T04:48:05.810Z,17.30
2018-05-13T04:49:05.852Z,17.40
2018-05-13T04:50:08.618Z,17.60
2018-05-13T04:51:06.148Z,17.60
2018-05-13T04:52:09.044Z,17.80
2018-05-13T04:53:08.198Z,17.90
2018-05-13T04:54:07.779Z,17.90
2018-05-13T04:55:05.385Z,17.90
2018-05-13T04:56:06.420Z,18.00
2018-05-13T04:57:08.750Z,18.20
2018-05-13T04:58:08.687Z,18.30
2018-05-13T04:59:08.104Z,18.40
2018-05-13T05:00:06.197Z,18.40
2018-05-13T05:01:06.156Z,18.50
2018-05-13T05:02:05.456Z,18.60
2018-05-13T05:03:06.139Z,18.60
2018-05-13T05:04:11.022Z,18.80
2018-05-13T05:05:08.826Z,18.90
2018-05-13T05:06:10.569Z,19.00
2018-05-13T05:07:10.894Z,19.00
2018-05-13T05:08:10.217Z,19.10
2018-05-13T05:09:05.785Z,19.10
2018-05-13T05:10:05.732Z,19.20
2018-05-13T05:11:06.431Z,19.20
2018-05-13T05:12:05.357Z,19.30
2018-05-13T05:13:05.479Z,19.40
2018-05-13T05:14:10.944Z,19.60
2018-05-13T05:15:05.606Z,19.60
2018-05-13T05:16:08.299Z,19.80
2018-05-13T05:17:08.910Z,19.90
2018-05-13T05:18:10.650Z,19.90
2018-05-13T05:19:05.407Z,20.00
2018-05-13T05:20:06.257Z,20.00
2018-05-13T05:21:11.005Z,20.20
2018-05-13T05:22:09.089Z,20.30
2018-05-13T05:23:05.973Z,20.30
2018-05-13T05:24:05.708Z,20.40
2018-05-13T05:25:10.903Z,20.60
2018-05-13T05:26:05.603Z,20.60
2018-05-13T05:27:10.840Z,20.60
2018-05-13T05:28:05.397Z,20.60
2018-05-13T05:29:05.178Z,20.70
2018-05-13T05:30:07.012Z,20.80
2018-05-13T05:31:13.225Z,20.90
2018-05-13T05:32:11.185Z,21.00
2018-05-13T05:33:08.253Z,20.90
2018-05-13T05:34:05.981Z,21.10
2018-05-13T05:35:05.590Z,21.20
2018-05-13T05:36:08.315Z,21.30
2018-05-13T05:37:05.799Z,21.30
2018-05-13T05:38:05.696Z,21.40
2018-05-13T05:39:05.414Z,21.40
2018-05-13T05:40:05.967Z,21.50
2018-05-13T05:41:05.692Z,21.60
2018-05-13T05:42:08.495Z,21.70
2018-05-13T05:43:05.726Z,21.70
2018-05-13T05:44:05.796Z,21.80
2018-05-13T05:45:06.018Z,21.80
2018-05-13T05:46:05.648Z,21.70
2018-05-13T05:47:05.456Z,21.70
2018-05-13T05:48:07.714Z,21.60
2018-05-13T05:49:10.475Z,21.50
2018-05-13T05:50:06.193Z,21.50
2018-05-13T05:51:10.420Z,21.50
2018-05-13T05:52:10.643Z,21.50
2018-05-13T05:53:05.798Z,21.50
2018-05-13T05:54:05.883Z,21.50
2018-05-13T05:55:10.644Z,21.50
2018-05-13T05:56:05.963Z,21.50
2018-05-13T05:57:06.332Z,21.40
2018-05-13T05:58:08.619Z,21.30
2018-05-13T05:59:05.389Z,21.20
2018-05-13T06:00:07.893Z,21.10
2018-05-13T06:01:05.669Z,21.10
2018-05-13T06:02:08.995Z,21.10
2018-05-13T06:03:06.083Z,21.00
2018-05-13T06:04:06.149Z,21.00
2018-05-13T06:05:08.547Z,21.00
2018-05-13T06:06:10.919Z,21.00
2018-05-13T06:07:06.816Z,21.00
2018-05-13T06:08:09.282Z,21.00
2018-05-13T06:09:08.690Z,21.10
2018-05-13T06:10:05.568Z,21.10
2018-05-13T06:11:05.404Z,21.10
2018-05-13T06:12:09.305Z,21.10
2018-05-13T06:13:05.906Z,21.10
2018-05-13T06:14:10.684Z,21.20
2018-05-13T06:15:08.474Z,21.30
2018-05-13T06:16:06.254Z,21.30
2018-05-13T06:17:13.799Z,21.40
2018-05-13T06:18:05.277Z,21.40
2018-05-13T06:19:10.605Z,21.60
2018-05-13T06:20:05.248Z,21.60
2018-05-13T06:21:06.043Z,21.70
2018-05-13T06:22:05.635Z,21.80
2018-05-13T06:23:05.404Z,21.90
2018-05-13T06:24:11.121Z,22.10
2018-05-13T06:25:10.964Z,22.20
2018-05-13T06:26:05.637Z,22.10
2018-05-13T06:27:10.690Z,22.30
2018-05-13T06:28:08.676Z,22.40
2018-05-13T06:29:05.238Z,22.40
2018-05-13T06:30:08.594Z,22.60
2018-05-13T06:31:11.344Z,22.70
2018-05-13T06:32:05.880Z,22.70
2018-05-13T06:33:11.312Z,22.80
2018-05-13T06:34:06.156Z,22.80
2018-05-13T06:35:06.159Z,22.80
2018-05-13T06:36:05.760Z,22.90
2018-05-13T06:37:05.706Z,22.90
2018-05-13T06:38:05.889Z,23.00
2018-05-13T06:39:10.697Z,23.20
2018-05-13T06:40:12.841Z,23.30
2018-05-13T06:41:08.285Z,23.30
2018-05-13T06:42:10.937Z,23.40
2018-05-13T06:43:05.333Z,23.40
2018-05-13T06:44:11.130Z,23.60
2018-05-13T06:45:10.499Z,23.60
2018-05-13T06:46:06.177Z,23.60
2018-05-13T06:47:05.440Z,23.60
2018-05-13T06:48:08.051Z,23.60
2018-05-13T06:49:11.003Z,23.70
2018-05-13T06:50:10.608Z,23.70
2018-05-13T06:51:06.244Z,23.70
2018-05-13T06:52:05.962Z,23.80
2018-05-13T06:53:05.958Z,23.90
2018-05-13T06:54:06.513Z,23.90
2018-05-13T06:55:05.471Z,24.00
2018-05-13T06:56:05.282Z,24.10
2018-05-13T06:57:05.403Z,24.20
2018-05-13T06:58:06.329Z,24.20
2018-05-13T06:59:10.750Z,24.30
2018-05-13T07:00:05.909Z,24.20
2018-05-13T07:01:05.932Z,24.30
2018-05-13T07:02:05.999Z,24.30
2018-05-13T07:03:08.161Z,24.30
2018-05-13T07:04:05.760Z,24.30
2018-05-13T07:05:12.947Z,24.30
2018-05-13T07:06:05.719Z,24.30
2018-05-13T07:07:14.435Z,24.30
2018-05-13T07:08:09.125Z,24.20
2018-05-13T07:09:11.104Z,24.30
2018-05-13T07:10:06.142Z,24.30
2018-05-13T07:11:05.988Z,24.20
2018-05-13T07:12:05.508Z,24.30
2018-05-13T07:13:05.663Z,24.30
2018-05-13T07:14:05.500Z,24.30
2018-05-13T07:15:07.811Z,24.40
2018-05-13T07:16:05.878Z,24.40
2018-05-13T07:17:08.741Z,24.50
2018-05-13T07:18:10.922Z,24.40
2018-05-13T07:19:08.268Z,24.50
2018-05-13T07:20:08.300Z,24.60
2018-05-13T07:21:05.839Z,24.60
2018-05-13T07:22:05.735Z,24.50
2018-05-13T07:23:05.825Z,24.60
2018-05-13T07:24:08.198Z,24.60
2018-05-13T07:25:13.518Z,24.60
2018-05-13T07:26:06.587Z,24.60
2018-05-13T07:27:05.465Z,24.60
2018-05-13T07:28:05.229Z,24.70
2018-05-13T07:29:10.672Z,24.80
2018-05-13T07:30:06.104Z,24.80
2018-05-13T07:31:06.280Z,24.80
2018-05-13T07:32:10.909Z,24.80
2018-05-13T07:33:05.595Z,24.80
2018-05-13T07:34:11.428Z,24.80
2018-05-13T07:35:05.927Z,24.90
2018-05-13T07:36:11.132Z,24.80
2018-05-13T07:37:10.729Z,24.90
2018-05-13T07:38:05.484Z,24.90
2018-05-13T07:39:06.088Z,24.90
2018-05-13T07:40:12.057Z,24.90
2018-05-13T07:41:05.336Z,24.90
2018-05-13T07:42:05.365Z,25.00
2018-05-13T07:43:10.335Z,25.10
2018-05-13T07:44:10.272Z,25.10
2018-05-13T07:45:07.943Z,25.10
2018-05-13T07:46:10.692Z,25.10
2018-05-13T07:47:06.162Z,25.10
2018-05-13T07:48:13.692Z,25.10
2018-05-13T07:49:05.163Z,25.10
2018-05-13T07:50:05.648Z,25.10
2018-05-13T07:51:08.914Z,25.10
2018-05-13T07:52:10.698Z,25.10
2018-05-13T07:53:05.517Z,25.10
2018-05-13T07:54:08.139Z,25.20
2018-05-13T07:55:10.849Z,25.20
2018-05-13T07:56:06.143Z,25.20
2018-05-13T07:57:05.438Z,25.30
2018-05-13T07:58:05.424Z,25.40
2018-05-13T07:59:07.905Z,25.40
2018-05-13T08:00:05.607Z,25.40
2018-05-13T08:01:08.317Z,25.40
2018-05-13T08:02:06.023Z,25.40
2018-05-13T08:03:06.084Z,25.40
2018-05-13T08:04:08.171Z,25.40
2018-05-13T08:05:08.395Z,25.40
2018-05-13T08:06:05.994Z,25.40
2018-05-13T08:07:06.013Z,25.40
2018-05-13T08:08:05.453Z,25.40
2018-05-13T08:09:05.409Z,25.40
2018-05-13T08:10:08.000Z,25.50
2018-05-13T08:11:05.624Z,25.50
2018-05-13T08:12:08.935Z,25.50
2018-05-13T08:13:11.117Z,25.60
2018-05-13T08:14:09.133Z,25.60
2018-05-13T08:15:05.356Z,25.60
2018-05-13T08:16:05.195Z,25.70
2018-05-13T08:17:06.224Z,25.70
2018-05-13T08:18:05.446Z,0.00
2018-05-13T08:19:08.703Z,25.70
2018-05-13T08:20:07.980Z,25.70
2018-05-13T08:21:10.520Z,25.70
2018-05-13T08:22:05.939Z,25.70
2018-05-13T08:23:05.965Z,25.80
2018-05-13T08:24:06.015Z,25.90
2018-05-13T08:25:06.237Z,26.00
2018-05-13T08:26:06.298Z,26.00
2018-05-13T08:27:08.801Z,26.10
2018-05-13T08:28:10.542Z,26.10
2018-05-13T08:29:06.240Z,26.10
2018-05-13T08:30:05.954Z,26.20
2018-05-13T08:31:06.028Z,26.20
2018-05-13T08:32:05.853Z,26.20
2018-05-13T08:33:06.113Z,26.30
2018-05-13T08:34:06.018Z,26.30
2018-05-13T08:35:06.068Z,26.30
2018-05-13T08:36:05.347Z,26.30
2018-05-13T08:37:06.439Z,26.30
2018-05-13T08:38:05.584Z,26.20
2018-05-13T08:39:05.523Z,26.20
2018-05-13T08:40:08.552Z,26.20
2018-05-13T08:41:05.977Z,26.20
2018-05-13T08:42:05.384Z,26.20
2018-05-13T08:43:06.089Z,26.10
2018-05-13T08:44:05.809Z,26.10
2018-05-13T08:45:06.439Z,26.10
2018-05-13T08:46:08.170Z,26.00
2018-05-13T08:47:05.670Z,26.00
2018-05-13T08:48:05.637Z,25.90
2018-05-13T08:49:08.743Z,25.90
2018-05-13T08:50:05.302Z,25.90
2018-05-13T08:51:11.201Z,25.80
2018-05-13T08:52:13.435Z,25.80
2018-05-13T08:53:05.969Z,25.80
2018-05-13T08:54:08.845Z,25.70
2018-05-13T08:55:08.648Z,25.80
2018-05-13T08:56:10.245Z,25.70
2018-05-13T08:57:05.918Z,25.70
2018-05-13T08:58:05.848Z,25.70
2018-05-13T08:59:05.538Z,25.70
2018-05-13T09:00:10.701Z,25.70
2018-05-13T09:01:11.438Z,25.60
2018-05-13T09:02:08.494Z,25.60
2018-05-13T09:03:05.988Z,25.60
2018-05-13T09:04:05.717Z,25.60
2018-05-13T09:05:05.934Z,25.60
2018-05-13T09:06:08.845Z,25.60
2018-05-13T09:07:05.469Z,25.50
2018-05-13T09:08:05.845Z,25.60
2018-05-13T09:09:10.678Z,25.60
2018-05-13T09:10:05.432Z,25.60
2018-05-13T09:11:05.582Z,25.60
2018-05-13T09:12:05.692Z,25.50
2018-05-13T09:13:05.507Z,25.50
2018-05-13T09:14:06.574Z,25.60
2018-05-13T09:15:11.347Z,25.50
2018-05-13T09:16:05.898Z,25.50
2018-05-13T09:17:06.081Z,25.50
2018-05-13T09:18:05.443Z,25.50
2018-05-13T09:19:06.073Z,25.50
2018-05-13T09:20:05.390Z,25.50
2018-05-13T09:21:07.952Z,25.40
2018-05-13T09:22:05.747Z,25.40
2018-05-13T09:23:05.531Z,25.20
2018-05-13T09:24:05.879Z,25.20
2018-05-13T09:25:10.711Z,25.10
2018-05-13T09:26:09.045Z,25.00
2018-05-13T09:27:10.639Z,25.00
2018-05-13T09:28:13.069Z,25.00
2018-05-13T09:29:08.310Z,24.90
2018-05-13T09:30:06.046Z,24.90
2018-05-13T09:31:05.692Z,24.90
2018-05-13T09:32:05.293Z,24.90
2018-05-13T09:33:05.387Z,24.90
2018-05-13T09:34:06.005Z,24.90
2018-05-13T09:35:05.492Z,24.90
2018-05-13T09:36:05.687Z,24.90
2018-05-13T09:37:05.949Z,24.90
2018-05-13T09:38:05.924Z,24.90
2018-05-13T09:39:06.146Z,24.90
2018-05-13T09:40:05.940Z,25.00
2018-05-13T09:41:08.512Z,25.10
2018-05-13T09:42:05.449Z,25.00
2018-05-13T09:43:06.207Z,25.10
2018-05-13T09:44:06.126Z,25.10
2018-05-13T09:45:09.160Z,25.20
2018-05-13T09:46:05.953Z,25.20
2018-05-13T09:47:08.754Z,25.30
2018-05-13T09:48:05.369Z,25.30
2018-05-13T09:49:05.444Z,25.30
2018-05-13T09:50:07.081Z,25.40
2018-05-13T09:51:10.743Z,25.50
2018-05-13T09:52:05.396Z,25.50
2018-05-13T09:53:06.287Z,25.50
2018-05-13T09:54:07.674Z,25.60
2018-05-13T09:55:05.278Z,25.60
2018-05-13T09:56:06.048Z,25.60
2018-05-13T09:57:08.818Z,25.60
2018-05-13T09:58:05.540Z,25.60
2018-05-13T09:59:05.618Z,25.60
2018-05-13T10:00:11.076Z,25.50
2018-05-13T10:01:05.581Z,25.50
2018-05-13T10:02:05.636Z,13.10
2018-05-13T10:03:07.815Z,25.30
2018-05-13T10:04:05.854Z,25.30
2018-05-13T10:05:05.633Z,25.20
2018-05-13T10:06:08.145Z,25.20
2018-05-13T10:07:06.195Z,25.20
2018-05-13T10:08:08.324Z,25.30
2018-05-13T10:09:06.360Z,25.20
2018-05-13T10:10:08.227Z,25.40
2018-05-13T10:11:06.332Z,25.30
2018-05-13T10:12:10.270Z,25.40
2018-05-13T10:13:09.562Z,25.40
2018-05-13T10:14:06.091Z,25.40
2018-05-13T10:15:06.234Z,25.40
2018-05-13T10:16:05.228Z,25.50
2018-05-13T10:17:07.834Z,25.60
2018-05-13T10:18:11.139Z,25.60
2018-05-13T10:19:05.509Z,25.60
2018-05-13T10:20:06.030Z,25.60
2018-05-13T10:21:05.987Z,25.60
2018-05-13T10:22:06.254Z,25.60
2018-05-13T10:23:05.159Z,25.70
2018-05-13T10:24:05.297Z,25.70
2018-05-13T10:25:05.459Z,25.60
2018-05-13T10:26:06.123Z,25.50
2018-05-13T10:27:08.216Z,25.50
2018-05-13T10:28:06.329Z,25.50
2018-05-13T10:29:06.451Z,25.50
2018-05-13T10:30:08.559Z,25.60
2018-05-13T10:31:06.243Z,25.60
2018-05-13T10:32:05.448Z,25.70
2018-05-13T10:33:07.894Z,25.90
2018-05-13T10:34:05.427Z,25.90
2018-05-13T10:35:06.328Z,25.90
2018-05-13T10:36:10.489Z,26.00
2018-05-13T10:37:11.177Z,26.00
2018-05-13T10:38:05.861Z,26.00
2018-05-13T10:39:06.072Z,26.00
2018-05-13T10:40:05.528Z,26.00
2018-05-13T10:41:09.252Z,25.90
2018-05-13T10:42:05.235Z,25.90
2018-05-13T10:43:11.186Z,25.80
2018-05-13T10:44:05.875Z,25.80
2018-05-13T10:45:05.504Z,25.70
2018-05-13T10:46:05.474Z,25.70
2018-05-13T10:47:05.416Z,25.60
2018-05-13T10:48:05.545Z,25.50
2018-05-13T10:49:05.612Z,25.50
2018-05-13T10:50:10.880Z,25.50
2018-05-13T10:51:05.384Z,25.50
2018-05-13T10:52:05.857Z,25.50
2018-05-13T10:53:05.614Z,25.50
2018-05-13T10:54:07.995Z,25.50
2018-05-13T10:55:05.684Z,25.40
2018-05-13T10:56:06.352Z,25.50
2018-05-13T10:57:08.599Z,25.40
2018-05-13T10:58:05.340Z,25.40
2018-05-13T10:59:09.228Z,25.40
2018-05-13T11:00:06.117Z,25.40
2018-05-13T11:01:10.752Z,25.40
2018-05-13T11:02:08.571Z,25.40
2018-05-13T11:03:09.499Z,25.50
2018-05-13T11:04:08.777Z,25.60
2018-05-13T11:05:10.301Z,25.70
2018-05-13T11:06:08.259Z,25.70
2018-05-13T11:07:11.056Z,25.80
2018-05-13T11:08:09.664Z,25.80
2018-05-13T11:09:05.226Z,25.80
2018-05-13T11:10:05.409Z,25.90
2018-05-13T11:11:06.105Z,25.80
2018-05-13T11:12:06.070Z,25.90
2018-05-13T11:13:05.399Z,25.90
2018-05-13T11:14:05.477Z,25.90
2018-05-13T11:15:05.809Z,25.90
2018-05-13T11:16:05.908Z,26.00
2018-05-13T11:17:05.979Z,26.00
2018-05-13T11:18:05.979Z,26.00
2018-05-13T11:19:05.747Z,26.00
2018-05-13T11:20:08.032Z,26.00
2018-05-13T11:21:05.648Z,26.00
2018-05-13T11:22:05.447Z,25.90
2018-05-13T11:23:06.186Z,25.90
2018-05-13T11:24:08.359Z,25.80
2018-05-13T11:25:06.007Z,25.80
2018-05-13T11:26:10.697Z,25.70
2018-05-13T11:27:05.441Z,25.70
2018-05-13T11:28:05.362Z,25.70
2018-05-13T11:29:06.077Z,25.60
2018-05-13T11:30:05.871Z,25.60
2018-05-13T11:31:05.745Z,25.60
2018-05-13T11:32:05.446Z,25.70
2018-05-13T11:33:08.562Z,25.80
2018-05-13T11:34:08.213Z,25.90
2018-05-13T11:35:07.021Z,25.90
2018-05-13T11:36:05.575Z,25.90
2018-05-13T11:37:08.658Z,26.10
2018-05-13T11:38:05.286Z,26.10
2018-05-13T11:39:06.289Z,26.20
2018-05-13T11:40:11.061Z,26.20
2018-05-13T11:41:11.152Z,26.30
2018-05-13T11:42:10.282Z,26.30
2018-05-13T11:43:05.941Z,26.30
2018-05-13T11:44:06.521Z,26.40
2018-05-13T11:45:05.894Z,26.50
2018-05-13T11:46:05.671Z,26.50
2018-05-13T11:47:06.888Z,26.50
2018-05-13T11:48:13.123Z,26.60
2018-05-13T11:49:10.957Z,26.60
2018-05-13T11:50:08.272Z,26.60
2018-05-13T11:51:11.197Z,26.60
2018-05-13T11:52:10.932Z,26.60
2018-05-13T11:53:06.127Z,26.60
2018-05-13T11:54:05.704Z,26.70
2018-05-13T11:55:10.639Z,26.70
2018-05-13T11:56:11.241Z,26.70
2018-05-13T11:57:08.454Z,26.70
2018-05-13T11:58:06.038Z,26.70
2018-05-13T11:59:08.743Z,26.50
2018-05-13T12:00:11.168Z,26.50
2018-05-13T12:01:05.846Z,26.60
2018-05-13T12:02:05.688Z,26.60
2018-05-13T12:03:05.740Z,26.60
2018-05-13T12:04:11.077Z,26.60
2018-05-13T12:05:08.347Z,26.60
2018-05-13T12:06:06.004Z,26.60
2018-05-13T12:07:05.442Z,26.70
2018-05-13T12:08:05.316Z,26.70
2018-05-13T12:09:05.875Z,26.70
2018-05-13T12:10:08.180Z,26.70
2018-05-13T12:11:05.721Z,26.70
2018-05-13T12:12:05.973Z,26.80
2018-05-13T12:13:08.703Z,26.80
2018-05-13T12:14:08.691Z,26.80
2018-05-13T12:15:05.452Z,26.80
2018-05-13T12:16:06.221Z,26.80
2018-05-13T12:17:10.619Z,26.80
2018-05-13T12:18:06.573Z,26.80
2018-05-13T12:19:05.889Z,26.80
2018-05-13T12:20:05.974Z,26.80
2018-05-13T12:21:06.848Z,26.80
2018-05-13T12:22:05.475Z,26.80
2018-05-13T12:23:05.263Z,26.80
2018-05-13T12:24:05.233Z,26.80
2018-05-13T12:25:06.162Z,26.80
2018-05-13T12:26:05.866Z,26.80
2018-05-13T12:27:05.640Z,26.80
2018-05-13T12:28:08.332Z,26.80
2018-05-13T12:29:06.028Z,26.90
2018-05-13T12:30:10.529Z,26.80
2018-05-13T12:31:10.581Z,26.80
2018-05-13T12:32:08.359Z,26.80
2018-05-13T12:33:05.977Z,26.80
2018-05-13T12:34:08.615Z,26.80
2018-05-13T12:35:05.421Z,26.00
2018-05-13T12:36:05.381Z,26.80
2018-05-13T12:37:06.094Z,26.80
2018-05-13T12:38:05.812Z,26.80
2018-05-13T12:39:08.122Z,26.80
2018-05-13T12:40:05.805Z,26.80
2018-05-13T12:41:05.840Z,26.90
2018-05-13T12:42:05.969Z,26.80
2018-05-13T12:43:05.358Z,26.80
2018-05-13T12:44:06.036Z,26.80
2018-05-13T12:45:07.944Z,26.80
2018-05-13T12:46:08.180Z,26.80
2018-05-13T12:47:05.718Z,26.80
2018-05-13T12:48:05.930Z,26.80
2018-05-13T12:49:06.049Z,26.80
2018-05-13T12:50:08.688Z,26.80
2018-05-13T12:51:05.208Z,26.80
2018-05-13T12:52:05.246Z,26.80